Aérodrome :
LOGIN :

S'inscrire | Disclaimer

   EN    FR    IT 

 










Légende :    VFR   VFR Marginal   IFR   IFR Intensif   IFR Très Intensif
Visi : 
Plafond : 
>= 8 km
>= 3000ft
5 à 8 km
1000 à 3000 ft
1500m à 5 km
500 à 1000 ft
800 à 1500m
200 à 500 ft
< 800m
< 200 ft
Symboles :   Orages  Brouillard  Fortes neiges  Fortes précipitations  Vent > 20 kt
SIGMETs :   Divers  Orages  Givrage  Turbulence  Onde Orograph.  Cendres Volcan.







- Altitude de l'aérodrome : 913 ft
- Voir les cartes d'approche


LFSX - Luxeuil

DERNIER METAR :
  • 130400Z AUTO 22002KT 9999 -RA FEW026/// SCT047/// BKN058/// ///TCU 10/10 Q1024

METARs EXPIRÉS :
  • 130330Z AUTO 31003KT 9999 RA FEW027 BKN046 OVC056 11/10 Q1024
  • 130300Z AUTO 28004KT 250V320 9999 -RA FEW022/// BKN040/// OVC066/// ///TCU 11/10 Q1024
  • 130230Z AUTO 29004KT 270V330 9000 -RA FEW024/// OVC035/// ///TCU 11/10 Q1023
  • 130200Z AUTO 30005KT 270V330 7000 RA FEW016/// BKN033/// OVC039/// ///TCU 11/10 Q1023
  • 130130Z AUTO 30004KT 8000 RA OVC032/// ///TCU 12/10 Q1023

TAF AMD TAF LFSX
Valide du 12 à 15h jusqu'au 13 à 15h UTC


121430Z 1215/1315 21015G25KT CAVOK
TEMPO 1215/1218 22025G35KT
BECMG 1222/1224 24006KT
TEMPO 1300/1310 4000 RA BKN014
Pas de NOTAMs connus pour ce terrain.



MET'MAP, la Météo Aéronautique d'un coup d'oeil ! - Copyright ORBIFLY Décembre 2007 - Disclaimer

ORBIFLY MET'MAP TEAM :

Programmation & Développement : Alexandra Zaïnal
Conception & Développement : Baudouin d'Aumeries
Co-Programmation & Développement : Marc-Olivier Méhu
Soutien technique & logistique : Manuel Goepfert

Contact : metmap@orbifly.com




SOURCES & CREDITS :

   NOAA